Time;durP1;ratioP1;P1;durP2;ratioP2;P2;SDS_P1;SDS_P2;PMS_P1;PMS_P2;Temp;Humidity;BMP_temperature;BMP_pressure;BME280_temperature;BME280_humidity;BME280_pressure;Samples;Min_cycle;Max_cycle;Signal;HPM_P1;HPM_P2
2021/10/29 00:00:26;;;;;;;22.55;13.30;;;;;;;11.36;73.69;100615.65;1756120;81;21042;-67
2021/10/29 00:03:03;;;;;;;22.52;15.32;;;;;;;11.33;73.77;100612.61;1774586;81;21031;-67
2021/10/29 00:05:30;;;;;;;27.52;16.85;;;;;;;11.35;73.73;100610.44;1776501;81;21059;-67
2021/10/29 00:07:57;;;;;;;31.48;18.52;;;;;;;11.40;73.58;100608.61;1759080;81;20995;-68
2021/10/29 00:10:24;;;;;;;29.57;17.77;;;;;;;11.45;73.44;100612.73;1752205;81;21049;-67
2021/10/29 00:12:50;;;;;;;25.27;16.40;;;;;;;11.47;73.35;100600.23;1762703;79;21600;-67
2021/10/29 00:15:17;;;;;;;21.70;15.43;;;;;;;11.46;73.36;100604.85;1775523;81;21043;-67
2021/10/29 00:17:44;;;;;;;20.12;14.30;;;;;;;11.44;73.41;100604.27;1771817;81;21051;-67
2021/10/29 00:20:11;;;;;;;22.05;13.75;;;;;;;11.45;73.38;100606.45;1767018;81;21011;-68
2021/10/29 00:22:38;;;;;;;18.92;13.15;;;;;;;11.53;73.24;100607.91;1760520;81;21050;-68
2021/10/29 00:25:05;;;;;;;20.70;13.85;;;;;;;11.60;73.01;100608.52;1762338;80;21058;-67
2021/10/29 00:27:33;;;;;;;21.97;15.15;;;;;;;11.64;72.85;100608.30;1775015;81;21122;-68
2021/10/29 00:29:59;;;;;;;24.30;14.50;;;;;;;11.57;72.86;100613.96;1775453;81;21002;-67
2021/10/29 00:32:25;;;;;;;;;;;;;;;11.53;72.98;100614.72;1769292;81;21050;-67
2021/10/29 00:34:52;;;;;;;21.13;13.63;;;;;;;11.54;72.97;100613.66;1770122;81;20105;-67
2021/10/29 00:37:19;;;;;;;19.37;13.05;;;;;;;11.52;72.98;100609.80;1764728;79;21078;-67
2021/10/29 00:39:45;;;;;;;19.15;13.78;;;;;;;11.56;72.85;100612.30;1770628;81;21034;-68
2021/10/29 00:42:12;;;;;;;19.90;13.90;;;;;;;11.57;72.82;100613.96;1773901;81;21082;-67
2021/10/29 00:44:39;;;;;;;22.55;13.70;;;;;;;11.55;72.91;100622.92;1770897;81;21027;-67
2021/10/29 00:47:05;;;;;;;20.00;13.90;;;;;;;11.53;73.02;100617.45;1772050;81;20980;-67
2021/10/29 00:49:33;;;;;;;19.62;12.90;;;;;;;11.48;73.02;100619.04;1772247;81;21026;-67
2021/10/29 00:51:59;;;;;;;19.17;12.93;;;;;;;11.48;73.00;100615.48;1773544;80;21506;-67
2021/10/29 00:54:25;;;;;;;19.57;13.00;;;;;;;11.54;72.82;100615.02;1755076;80;21028;-68
2021/10/29 00:56:52;;;;;;;19.87;13.05;;;;;;;11.59;72.65;100614.52;1750855;80;21031;-67
2021/10/29 00:59:18;;;;;;;18.15;12.47;;;;;;;11.60;72.56;100609.89;1756477;80;21028;-67
2021/10/29 01:01:46;;;;;;;20.68;13.60;;;;;;;11.58;72.63;100609.34;1763945;80;21009;-67
2021/10/29 01:04:17;;;;;;;20.95;13.85;;;;;;;11.53;72.52;100610.63;1753998;80;21446;-67
2021/10/29 01:06:44;;;;;;;19.73;13.15;;;;;;;11.53;72.33;100615.55;1747644;82;21083;-68
2021/10/29 01:09:11;;;;;;;19.35;12.37;;;;;;;11.51;72.26;100609.55;1763185;80;21015;-66
2021/10/29 01:11:42;;;;;;;16.05;12.25;;;;;;;11.53;72.16;100615.55;1748452;80;21092;-67
2021/10/29 01:14:08;;;;;;;19.32;12.58;;;;;;;11.52;72.14;100612.53;1750997;82;21103;-67
2021/10/29 01:16:35;;;;;;;20.12;12.20;;;;;;;11.50;72.14;100606.52;1770971;80;21821;-67
2021/10/29 01:19:02;;;;;;;18.00;12.37;;;;;;;11.48;72.13;100606.77;1760964;80;21092;-67
2021/10/29 01:21:28;;;;;;;17.77;12.85;;;;;;;11.46;72.06;100606.22;1756650;80;21569;-67
2021/10/29 01:23:54;;;;;;;;;;;;;;;11.46;71.95;100615.76;1751751;82;21076;-68
2021/10/29 01:26:21;;;;;;;16.37;11.85;;;;;;;11.45;71.80;100610.02;1754638;80;20435;-67
2021/10/29 01:28:48;;;;;;;20.90;12.35;;;;;;;11.45;71.70;100607.28;1752376;80;21076;-67
2021/10/29 01:31:15;;;;;;;16.40;11.95;;;;;;;11.50;71.69;100606.52;1734928;80;21600;-68
2021/10/29 01:33:43;;;;;;;20.52;12.70;;;;;;;11.50;71.65;100607.89;1778080;80;21525;-67
2021/10/29 01:36:10;;;;;;;18.57;13.20;;;;;;;11.46;71.74;100607.58;1727915;82;21068;-67
2021/10/29 01:38:40;;;;;;;18.65;13.93;;;;;;;11.43;71.60;100607.27;1726034;82;21056;-67
2021/10/29 01:41:07;;;;;;;19.45;13.28;;;;;;;11.40;71.67;100604.52;1692459;83;21048;-67
2021/10/29 01:43:45;;;;;;;18.85;12.73;;;;;;;11.42;71.60;100621.44;1687173;83;21067;-67
2021/10/29 01:46:11;;;;;;;19.87;12.90;;;;;;;11.45;71.28;100608.65;1676761;85;21081;-67
2021/10/29 01:48:42;;;;;;;;;;;;;;;11.46;71.34;100618.48;1741445;82;21098;-67
2021/10/29 01:51:08;;;;;;;19.37;13.93;;;;;;;11.40;71.67;100615.42;1697728;83;20133;-67
2021/10/29 01:53:35;;;;;;;22.98;14.83;;;;;;;11.29;71.94;100607.38;1733655;82;21056;-67
2021/10/29 01:56:02;;;;;;;21.12;14.25;;;;;;;11.25;71.91;100601.62;1772654;80;21027;-67
2021/10/29 01:58:28;;;;;;;19.20;13.18;;;;;;;11.27;71.87;100606.26;1772119;80;21059;-67
2021/10/29 02:00:55;;;;;;;19.75;13.72;;;;;;;11.29;71.80;100604.66;1771185;80;20998;-67
2021/10/29 02:03:21;;;;;;;22.25;13.53;;;;;;;11.31;71.73;100601.95;1775698;79;21541;-67
2021/10/29 02:05:47;;;;;;;19.98;13.08;;;;;;;11.33;71.81;100605.80;1778232;81;21373;-67
2021/10/29 02:08:14;;;;;;;18.07;12.85;;;;;;;11.30;72.02;100604.95;1776387;79;21002;-67
2021/10/29 02:10:41;;;;;;;18.60;11.97;;;;;;;11.25;72.30;100605.70;1767664;81;21039;-67
2021/10/29 02:13:07;;;;;;;17.73;12.47;;;;;;;11.22;72.41;100606.22;1770508;81;21054;-67
2021/10/29 02:15:35;;;;;;;22.00;13.32;;;;;;;11.25;72.21;100619.87;1777681;81;21050;-67
2021/10/29 02:18:01;;;;;;;;;;;;;;;11.30;72.13;100615.28;1773437;81;21580;-67
2021/10/29 02:20:27;;;;;;;17.52;11.83;;;;;;;11.32;72.16;100619.96;1776307;81;20537;-68
2021/10/29 02:22:54;;;;;;;18.10;12.10;;;;;;;11.26;72.43;100618.80;1770205;81;21019;-67
2021/10/29 02:25:20;;;;;;;17.98;12.50;;;;;;;11.23;72.49;100619.31;1770107;81;20956;-67
2021/10/29 02:27:47;;;;;;;19.10;12.60;;;;;;;11.22;72.49;100617.66;1763297;81;21414;-67
2021/10/29 02:30:14;;;;;;;24.77;14.70;;;;;;;11.20;72.53;100620.63;1771457;81;20983;-67
2021/10/29 02:32:41;;;;;;;19.52;12.25;;;;;;;11.20;72.62;100628.80;1761755;81;21660;-67
2021/10/29 02:35:08;;;;;;;21.97;13.30;;;;;;;11.21;72.57;100625.54;1776704;81;20978;-67
2021/10/29 02:37:34;;;;;;;19.32;13.43;;;;;;;11.28;72.46;100622.91;1771227;81;21015;-67
2021/10/29 02:40:00;;;;;;;;;;;;;;;11.31;72.33;100626.48;1758293;81;21062;-68
2021/10/29 02:42:27;;;;;;;20.10;13.68;;;;;;;11.25;72.49;100632.96;1773384;79;20114;-68
2021/10/29 02:44:53;;;;;;;19.65;13.85;;;;;;;11.08;73.06;100630.02;1755403;81;20971;-68
2021/10/29 02:47:20;;;;;;;16.90;12.18;;;;;;;11.03;73.28;100631.30;1771834;81;21102;-67
2021/10/29 02:49:46;;;;;;;17.98;12.30;;;;;;;11.05;73.13;100630.53;1753640;81;21020;-67
2021/10/29 02:52:13;;;;;;;16.12;11.43;;;;;;;11.09;72.86;100635.20;1778162;80;21026;-67
2021/10/29 02:54:39;;;;;;;18.37;13.03;;;;;;;11.14;72.69;100638.00;1786896;80;21513;-68
2021/10/29 02:57:06;;;;;;;;;;;;;;;11.18;72.61;100632.33;1788227;80;21058;-68
2021/10/29 02:59:32;;;;;;;19.12;12.70;;;;;;;11.19;72.82;100633.16;1785775;80;20104;-68
2021/10/29 03:01:58;;;;;;;18.73;13.88;;;;;;;11.08;73.08;100632.21;1785636;80;21455;-67
2021/10/29 03:04:25;;;;;;;19.45;13.32;;;;;;;11.05;73.10;100641.42;1776210;80;21002;-67
2021/10/29 03:06:52;;;;;;;18.70;12.82;;;;;;;11.01;73.05;100634.30;1776369;80;21058;-67
2021/10/29 03:09:19;;;;;;;20.82;13.83;;;;;;;11.05;72.84;100639.53;1776395;79;21077;-67
2021/10/29 03:11:46;;;;;;;19.27;12.80;;;;;;;11.13;72.68;100640.96;1781377;80;21012;-67
2021/10/29 03:14:12;;;;;;;19.92;13.48;;;;;;;11.15;72.54;100644.28;1778713;79;21674;-67
2021/10/29 03:16:41;;;;;;;20.08;14.18;;;;;;;11.12;72.48;100638.80;1780149;80;21049;-67
2021/10/29 03:19:08;;;;;;;22.60;13.98;;;;;;;11.13;72.57;100644.52;1779867;80;20982;-67
2021/10/29 03:21:35;;;;;;;19.90;14.05;;;;;;;11.16;72.60;100644.57;1772398;80;21590;-66
2021/10/29 03:24:01;;;;;;;19.00;13.18;;;;;;;11.17;72.50;100646.20;1781625;80;20989;-67
2021/10/29 03:26:28;;;;;;;;;;;;;;;11.14;72.57;100646.17;1788325;80;21089;-68
2021/10/29 03:28:54;;;;;;;19.37;13.95;;;;;;;11.13;72.67;100636.34;1785102;80;20093;-67
2021/10/29 03:31:21;;;;;;;20.55;14.28;;;;;;;11.05;73.06;100643.62;1781936;80;21623;-67
2021/10/29 03:33:47;;;;;;;20.60;14.98;;;;;;;11.02;73.24;100638.65;1785727;80;21043;-67
2021/10/29 03:36:15;;;;;;;20.27;14.28;;;;;;;11.01;73.20;100645.20;1780072;80;21027;-66
2021/10/29 03:38:49;;;;;;;21.93;15.05;;;;;;;11.04;73.00;100643.33;1786164;80;21039;-69
2021/10/29 03:41:10;;;;;;;19.48;14.85;;;;;;;11.08;72.96;100634.94;1781607;80;21030;-68
2021/10/29 03:43:43;;;;;;;18.92;14.38;;;;;;;11.14;73.03;100635.80;1778444;80;21068;-67
2021/10/29 03:51:19;;;;;;;21.20;14.40;;;;;;;10.99;73.31;100639.16;1776285;80;21042;-67
2021/10/29 03:53:45;;;;;;;20.32;14.60;;;;;;;10.95;73.46;100650.27;1778049;80;21078;-69
2021/10/29 03:56:16;;;;;;;21.37;14.85;;;;;;;10.90;73.54;100660.58;1756086;80;21062;-68
2021/10/29 03:58:36;;;;;;;20.35;14.70;;;;;;;10.86;73.74;100659.43;1781752;80;21538;-68
2021/10/29 04:01:03;;;;;;;25.27;15.03;;;;;;;10.86;73.90;100659.43;1786333;80;21003;-68
2021/10/29 04:03:29;;;;;;;19.30;14.23;;;;;;;10.84;73.90;100662.12;1786597;79;21133;-68
2021/10/29 04:05:56;;;;;;;20.15;13.55;;;;;;;10.78;73.97;100658.49;1786549;80;20983;-68
2021/10/29 04:08:22;;;;;;;;;;;;;;;10.74;74.07;100651.06;1785477;80;21022;-68
2021/10/29 04:10:50;;;;;;;17.52;12.25;;;;;;;10.71;74.08;100653.76;1785551;80;20131;-68
2021/10/29 04:13:17;;;;;;;18.77;12.13;;;;;;;10.60;74.20;100657.41;1784401;79;21051;-68
2021/10/29 04:15:44;;;;;;;18.77;12.60;;;;;;;10.57;74.30;100651.63;1768821;80;21365;-68
2021/10/29 04:18:11;;;;;;;20.02;13.65;;;;;;;10.55;74.44;100654.63;1768645;81;21019;-68
2021/10/29 04:20:37;;;;;;;18.85;13.08;;;;;;;10.56;74.42;100662.26;1774471;80;20999;-69
2021/10/29 04:23:04;;;;;;;;;;;;;;;10.59;74.38;100659.03;1779954;79;21368;-69
2021/10/29 04:25:30;;;;;;;17.98;12.88;;;;;;;10.58;74.26;100663.65;1785821;80;20144;-69
2021/10/29 04:27:59;;;;;;;19.05;13.35;;;;;;;10.40;74.53;100663.38;1776536;80;20995;-69
2021/10/29 04:30:28;;;;;;;21.00;13.22;;;;;;;10.37;74.80;100673.40;1772218;80;21475;-69
2021/10/29 04:32:57;;;;;;;22.37;12.45;;;;;;;10.34;74.79;100673.90;1756267;80;21565;-69
2021/10/29 04:35:25;;;;;;;19.82;12.88;;;;;;;10.39;74.83;100669.88;1783013;80;20983;-68
2021/10/29 04:37:51;;;;;;;18.92;12.75;;;;;;;10.43;74.78;100671.57;1786101;79;21074;-69
2021/10/29 04:40:17;;;;;;;18.92;13.15;;;;;;;10.44;74.73;100674.59;1786447;80;21014;-69
2021/10/29 04:42:44;;;;;;;20.50;13.88;;;;;;;10.45;74.82;100677.61;1779555;79;21039;-69
2021/10/29 04:45:11;;;;;;;20.23;13.70;;;;;;;10.43;74.98;100674.29;1786066;80;21612;-69
2021/10/29 04:47:38;;;;;;;20.30;14.75;;;;;;;10.43;75.06;100681.92;1778686;80;21051;-69
2021/10/29 04:50:06;;;;;;;25.17;14.00;;;;;;;10.53;74.88;100692.67;1786516;80;21507;-69
2021/10/29 04:52:33;;;;;;;21.37;15.35;;;;;;;10.60;74.74;100695.52;1766917;80;21142;-69
2021/10/29 04:54:59;;;;;;;26.12;16.77;;;;;;;10.62;74.75;100692.56;1770807;80;21043;-69
2021/10/29 04:57:26;;;;;;;24.90;15.60;;;;;;;10.63;74.78;100694.22;1767957;80;21597;-69
2021/10/29 04:59:52;;;;;;;;;;;;;;;10.64;74.80;100696.68;1752889;82;21087;-69
2021/10/29 05:02:20;;;;;;;23.05;17.17;;;;;;;10.66;74.74;100689.10;1747342;82;20096;-69
2021/10/29 05:04:46;;;;;;;20.48;14.65;;;;;;;10.62;74.86;100691.20;1748653;80;21542;-69
2021/10/29 05:07:13;;;;;;;23.32;16.00;;;;;;;10.64;74.87;100695.31;1744957;80;21076;-69
2021/10/29 05:09:39;;;;;;;25.27;15.83;;;;;;;10.68;74.82;100691.03;1752928;80;21051;-69
2021/10/29 05:12:06;;;;;;;22.00;16.27;;;;;;;10.72;74.73;100700.88;1767323;80;21569;-69
2021/10/29 05:14:33;;;;;;;24.07;16.57;;;;;;;10.73;74.62;100702.54;1751276;80;21037;-69
2021/10/29 05:16:59;;;;;;;28.65;19.23;;;;;;;10.80;74.54;100705.38;1719223;82;21605;-69
2021/10/29 05:19:25;;;;;;;27.65;17.62;;;;;;;10.83;74.40;100704.87;1746797;82;21007;-69
2021/10/29 05:21:52;;;;;;;31.93;19.05;;;;;;;10.86;74.45;100704.91;1720602;82;21059;-69
2021/10/29 05:24:19;;;;;;;31.15;21.50;;;;;;;10.89;74.42;100712.05;1752490;80;20995;-69
2021/10/29 05:26:45;;;;;;;29.02;21.52;;;;;;;10.92;74.58;100714.27;1751398;82;21598;-69
2021/10/29 05:29:12;;;;;;;34.58;28.38;;;;;;;10.95;74.65;100707.48;1753828;80;21091;-69
2021/10/29 05:31:40;;;;;;;35.70;24.85;;;;;;;11.01;74.45;100707.03;1752706;82;21076;-69
2021/10/29 05:34:06;;;;;;;33.85;23.05;;;;;;;11.05;74.19;100717.19;1752838;80;21076;-69
2021/10/29 05:36:33;;;;;;;32.23;21.73;;;;;;;11.10;74.04;100720.50;1747483;81;21079;-69
2021/10/29 05:38:59;;;;;;;27.77;20.32;;;;;;;11.15;74.06;100718.69;1778098;80;21069;-69
2021/10/29 05:41:25;;;;;;;;;;;;;;;11.16;74.24;100718.15;1766219;80;21013;-69
2021/10/29 05:43:52;;;;;;;23.20;16.20;;;;;;;11.11;74.38;100724.34;1758476;80;20136;-69
2021/10/29 05:46:19;;;;;;;;;;;;;;;10.99;74.42;100720.89;1749101;80;21578;-69
2021/10/29 05:48:46;;;;;;;21.55;15.43;;;;;;;10.96;74.28;100722.76;1748287;82;20398;-69
2021/10/29 05:51:13;;;;;;;26.42;17.82;;;;;;;10.95;74.44;100723.83;1750721;80;21064;-69
2021/10/29 05:54:36;;;;;;;23.10;16.55;;;;;;;10.93;74.54;100727.35;1786585;80;21136;-69
2021/10/29 05:56:08;;;;;;;25.37;18.32;;;;;;;10.91;74.85;100727.59;1764431;80;21018;-69
2021/10/29 05:58:36;;;;;;;23.83;16.23;;;;;;;10.97;74.96;100733.42;1779606;80;21051;-69
2021/10/29 06:01:03;;;;;;;25.43;16.32;;;;;;;11.07;74.85;100734.09;1773676;80;21518;-69
2021/10/29 06:03:30;;;;;;;29.00;17.32;;;;;;;11.15;74.50;100735.03;1783844;80;21046;-69
2021/10/29 06:05:56;;;;;;;21.93;15.03;;;;;;;11.22;74.35;100738.94;1786976;80;21553;-70
2021/10/29 06:08:23;;;;;;;22.17;15.32;;;;;;;11.22;74.30;100743.03;1784417;80;21538;-69
2021/10/29 06:10:49;;;;;;;22.17;17.10;;;;;;;11.11;74.39;100739.34;1774113;81;21034;-69
2021/10/29 06:13:18;;;;;;;30.12;20.82;;;;;;;11.05;74.71;100736.80;1775901;80;21094;-69
2021/10/29 06:15:47;;;;;;;24.35;18.23;;;;;;;11.13;74.83;100740.43;1786690;80;21015;-69
2021/10/29 06:18:22;;;;;;;28.67;18.77;;;;;;;11.25;74.65;100739.26;1779061;80;21061;-69
2021/10/29 06:20:42;;;;;;;27.75;19.45;;;;;;;11.41;74.55;100746.55;1778374;80;21510;-69
2021/10/29 06:23:09;;;;;;;29.18;19.57;;;;;;;11.52;74.37;100744.78;1703752;83;21094;-69
2021/10/29 06:25:42;;;;;;;;;;;;;;;11.56;74.43;100750.55;1708633;83;21000;-69
2021/10/29 06:28:28;;;;;;;25.75;18.23;;;;;;;11.60;74.47;100746.24;1725531;82;20436;-69
2021/10/29 06:30:53;;;;;;;26.52;18.35;;;;;;;11.56;74.55;100756.83;1736911;82;21014;-70
2021/10/29 06:33:20;;;;;;;21.93;16.70;;;;;;;11.63;74.37;100759.36;1737202;82;21070;-70
2021/10/29 06:35:47;;;;;;;26.50;19.62;;;;;;;11.75;74.12;100754.65;1675729;82;21028;-70
2021/10/29 06:38:14;;;;;;;22.20;17.48;;;;;;;11.86;73.97;100751.80;1715025;83;21055;-70
2021/10/29 06:40:46;;;;;;;25.05;17.98;;;;;;;11.91;73.71;100756.46;1734715;82;21055;-70
2021/10/29 06:43:24;;;;;;;24.87;17.48;;;;;;;11.89;73.76;100755.91;1720072;82;21058;-70
2021/10/29 07:01:59;;;;;;;24.02;17.10;;;;;;;12.26;73.10;100769.13;1763358;81;21023;-71
2021/10/29 07:42:29;;;;;;;20.57;14.15;;;;;;;13.26;70.88;100785.27;1768993;81;21038;-70
2021/10/29 07:44:54;;;;;;;22.27;14.23;;;;;;;13.36;70.71;100783.42;1775248;81;21598;-71
2021/10/29 07:47:21;;;;;;;26.07;15.05;;;;;;;13.41;70.27;100786.20;1776130;79;21557;-72
2021/10/29 07:49:47;;;;;;;19.48;14.40;;;;;;;13.43;70.29;100790.84;1777096;81;21066;-71
2021/10/29 07:52:14;;;;;;;;;;;;;;;13.45;70.34;100787.86;1776519;80;21692;-72
2021/10/29 07:54:45;;;;;;;18.12;13.40;;;;;;;13.45;70.28;100792.78;1776488;81;20112;-72
2021/10/29 07:57:19;;;;;;;18.10;14.05;;;;;;;13.43;70.51;100787.28;1771343;81;21449;-72
2021/10/29 07:59:50;;;;;;;22.85;14.60;;;;;;;13.48;70.12;100788.69;1769199;81;21649;-72
2021/10/29 08:02:17;;;;;;;21.42;14.35;;;;;;;13.55;70.08;100795.28;1757993;81;21546;-72
2021/10/29 08:04:44;;;;;;;18.87;14.63;;;;;;;13.66;70.06;100791.52;1762767;81;20959;-72
2021/10/29 08:07:10;;;;;;;21.27;15.25;;;;;;;13.76;70.15;100796.48;1768450;81;20939;-71
2021/10/29 08:09:37;;;;;;;21.35;15.75;;;;;;;13.86;69.76;100797.06;1777202;81;21003;-72
2021/10/29 08:12:08;;;;;;;20.85;15.23;;;;;;;13.85;69.35;100799.55;1770690;81;20952;-72
2021/10/29 08:14:35;;;;;;;19.73;14.85;;;;;;;13.92;69.34;100795.45;1777683;81;21063;-71
2021/10/29 08:17:03;;;;;;;18.67;14.83;;;;;;;13.95;68.76;100794.11;1770349;81;20967;-72
2021/10/29 08:19:32;;;;;;;21.07;15.15;;;;;;;13.94;68.92;100796.02;1768187;81;21020;-72
2021/10/29 08:21:59;;;;;;;17.70;15.08;;;;;;;14.03;69.05;100799.05;1776682;81;21015;-71
2021/10/29 08:24:26;;;;;;;19.60;14.50;;;;;;;14.16;68.86;100795.81;1766217;81;21537;-71
2021/10/29 08:26:52;;;;;;;;;;;;;;;14.20;68.19;100796.93;1773676;80;20960;-71
2021/10/29 08:29:22;;;;;;;24.45;14.93;;;;;;;14.29;67.95;100801.31;1768157;81;20140;-71
2021/10/29 08:31:50;;;;;;;21.10;16.10;;;;;;;14.31;68.04;100804.05;1763115;81;21510;-71
2021/10/29 08:34:18;;;;;;;19.73;16.30;;;;;;;14.44;68.27;100809.60;1768102;81;21472;-71
2021/10/29 08:36:45;;;;;;;22.40;16.57;;;;;;;14.55;67.66;100804.42;1770022;80;21491;-70
2021/10/29 08:39:14;;;;;;;18.95;15.10;;;;;;;14.60;67.02;100803.58;1762815;80;21103;-69
2021/10/29 08:41:43;;;;;;;22.40;15.30;;;;;;;14.64;66.91;100799.20;1775492;80;21076;-68
2021/10/29 08:44:12;;;;;;;21.07;15.13;;;;;;;14.73;66.50;100805.27;1777918;81;21056;-69
2021/10/29 08:46:40;;;;;;;17.98;13.93;;;;;;;14.85;66.00;100803.05;1773323;81;20996;-69
2021/10/29 08:49:08;;;;;;;19.02;14.90;;;;;;;14.97;66.00;100802.79;1772582;81;21090;-69
2021/10/29 08:51:34;;;;;;;19.23;14.45;;;;;;;15.10;65.73;100813.73;1774752;81;21043;-69
2021/10/29 08:54:03;;;;;;;21.57;15.72;;;;;;;15.21;65.46;100810.72;1775025;81;21120;-69
2021/10/29 08:56:30;;;;;;;18.85;15.00;;;;;;;15.35;65.00;100806.30;1692119;85;20999;-69
2021/10/29 08:59:07;;;;;;;20.15;14.55;;;;;;;15.52;64.61;100801.89;1773707;80;21024;-69
2021/10/29 09:02:05;;;;;;;21.40;13.98;;;;;;;15.67;64.26;100803.77;1772478;81;20990;-70
2021/10/29 09:16:05;;;;;;;15.45;12.30;;;;;;;17.23;60.68;100794.54;1759714;80;21020;-69
2021/10/29 09:31:26;;;;;;;14.63;11.00;;;;;;;16.51;57.43;100794.58;1772543;80;20975;-69
